createdAt,value
2022-08-07T00:01:12.653Z,4.89
2022-08-07T00:03:48.919Z,4.90
2022-08-07T00:06:15.379Z,5.15
2022-08-07T00:08:44.315Z,4.94
2022-08-07T00:11:11.007Z,5.10
2022-08-07T00:13:40.537Z,5.18
2022-08-07T00:16:11.313Z,5.01
2022-08-07T00:18:43.779Z,4.94
2022-08-07T00:21:57.101Z,5.11
2022-08-07T00:23:56.805Z,4.93
2022-08-07T00:26:49.233Z,4.74
2022-08-07T00:29:09.594Z,5.02
2022-08-07T00:31:42.076Z,5.15
2022-08-07T00:34:09.437Z,4.84
2022-08-07T00:36:36.113Z,5.03
2022-08-07T00:39:05.183Z,4.82
2022-08-07T00:41:31.654Z,4.78
2022-08-07T00:44:03.756Z,4.93
2022-08-07T00:46:30.174Z,4.90
2022-08-07T00:48:59.342Z,5.08
2022-08-07T00:51:57.071Z,5.10
2022-08-07T00:54:15.006Z,4.96
2022-08-07T00:56:46.004Z,5.24
2022-08-07T00:59:16.396Z,5.12
2022-08-07T01:01:44.498Z,5.02
2022-08-07T01:04:11.278Z,4.93
2022-08-07T01:06:48.214Z,5.16
2022-08-07T01:10:02.405Z,5.00
2022-08-07T01:12:23.797Z,5.19
2022-08-07T01:14:47.420Z,5.18
2022-08-07T01:17:23.368Z,5.00
2022-08-07T01:19:54.159Z,5.39
2022-08-07T01:22:22.885Z,5.26
2022-08-07T01:24:55.710Z,5.32
2022-08-07T01:27:22.271Z,5.36
2022-08-07T01:29:48.679Z,5.38
2022-08-07T01:32:17.142Z,5.20
2022-08-07T01:34:47.402Z,5.25
2022-08-07T01:37:15.727Z,5.11
2022-08-07T01:39:46.730Z,5.38
2022-08-07T01:42:38.842Z,5.27
2022-08-07T01:44:59.931Z,5.50
2022-08-07T01:48:29.896Z,5.03
2022-08-07T01:50:13.165Z,5.16
2022-08-07T01:52:49.647Z,5.37
2022-08-07T01:55:22.375Z,5.28
2022-08-07T01:58:06.136Z,5.48
2022-08-07T02:00:38.777Z,5.06
2022-08-07T02:03:22.047Z,5.38
2022-08-07T02:05:59.351Z,5.60
2022-08-07T02:08:26.536Z,5.78
2022-08-07T02:10:55.249Z,5.54
2022-08-07T02:13:21.935Z,5.54
2022-08-07T02:16:08.335Z,5.77
2022-08-07T02:18:38.447Z,5.61
2022-08-07T02:21:16.128Z,5.74
2022-08-07T02:23:42.988Z,5.59
2022-08-07T02:26:32.969Z,5.47
2022-08-07T02:28:57.547Z,5.67
2022-08-07T02:31:29.007Z,5.65
2022-08-07T02:34:01.857Z,5.85
2022-08-07T02:36:32.965Z,5.72
2022-08-07T02:38:59.714Z,5.77
2022-08-07T02:41:26.183Z,6.08
2022-08-07T02:44:03.472Z,6.16
2022-08-07T02:46:31.543Z,5.52
2022-08-07T02:48:58.140Z,5.61
2022-08-07T02:51:41.937Z,5.57
2022-08-07T02:54:09.428Z,5.99
2022-08-07T02:56:35.837Z,5.76
2022-08-07T02:59:02.332Z,5.79
2022-08-07T03:01:36.393Z,5.90
2022-08-07T03:04:07.543Z,5.79
2022-08-07T03:06:34.813Z,5.83
2022-08-07T03:09:01.354Z,5.93
2022-08-07T03:11:28.207Z,5.72
2022-08-07T03:13:57.704Z,5.77
2022-08-07T03:16:28.334Z,5.57
2022-08-07T03:18:56.851Z,5.51
2022-08-07T03:21:23.336Z,5.49
2022-08-07T03:24:20.897Z,5.59
2022-08-07T03:26:36.124Z,5.49
2022-08-07T03:29:17.448Z,5.47
2022-08-07T03:31:46.208Z,5.89
2022-08-07T03:34:18.854Z,5.52
2022-08-07T03:36:48.845Z,5.94
2022-08-07T03:39:15.267Z,5.80
2022-08-07T03:41:47.621Z,5.46
2022-08-07T03:44:31.737Z,6.11
2022-08-07T03:47:10.981Z,5.63
2022-08-07T03:49:40.696Z,5.73
2022-08-07T03:52:07.443Z,5.71
2022-08-07T03:54:54.791Z,5.96
2022-08-07T03:58:32.481Z,5.70
2022-08-07T04:00:08.168Z,5.60
2022-08-07T04:02:36.981Z,5.62
2022-08-07T04:05:07.839Z,5.72
2022-08-07T04:07:41.830Z,5.73
2022-08-07T04:10:15.318Z,5.78
2022-08-07T04:12:42.250Z,5.67
2022-08-07T04:15:08.643Z,5.79
2022-08-07T04:18:11.276Z,5.76
2022-08-07T04:20:25.365Z,5.43
2022-08-07T04:22:53.339Z,5.66
2022-08-07T04:25:20.272Z,5.74
2022-08-07T04:27:59.131Z,5.71
2022-08-07T04:30:44.043Z,5.69
2022-08-07T04:33:15.457Z,5.92
2022-08-07T04:35:42.182Z,5.64
2022-08-07T04:38:08.640Z,5.70
2022-08-07T04:40:35.168Z,5.78
2022-08-07T04:43:03.468Z,5.78
2022-08-07T04:45:57.316Z,5.71
2022-08-07T04:48:16.782Z,5.84
2022-08-07T04:50:43.478Z,5.63
2022-08-07T04:53:39.932Z,5.74
2022-08-07T04:58:12.325Z,5.91
2022-08-07T05:01:38.387Z,5.65
2022-08-07T05:04:08.575Z,5.76
2022-08-07T05:06:43.187Z,5.62
2022-08-07T05:09:10.393Z,5.74
2022-08-07T05:11:57.658Z,5.94
2022-08-07T05:14:56.077Z,5.81
2022-08-07T05:17:12.210Z,5.98
2022-08-07T05:19:44.714Z,5.56
2022-08-07T05:22:11.661Z,5.78
2022-08-07T05:24:40.637Z,5.98
2022-08-07T05:27:07.230Z,5.81
2022-08-07T05:29:51.185Z,5.82
2022-08-07T05:32:20.122Z,5.72
2022-08-07T05:34:46.904Z,5.59
2022-08-07T05:37:13.328Z,5.65
2022-08-07T05:40:06.393Z,5.64
2022-08-07T05:42:39.177Z,5.41
2022-08-07T05:45:14.671Z,5.61
2022-08-07T05:48:01.157Z,5.52
2022-08-07T05:50:28.682Z,5.66
2022-08-07T05:52:55.096Z,5.64
2022-08-07T05:55:21.646Z,5.39
2022-08-07T05:57:49.340Z,5.65
2022-08-07T06:00:17.876Z,5.70
2022-08-07T06:02:44.392Z,5.73
2022-08-07T06:05:15.786Z,5.97
2022-08-07T06:08:14.725Z,5.79
2022-08-07T06:10:28.838Z,5.66
2022-08-07T06:12:55.811Z,5.52
2022-08-07T06:15:22.211Z,5.23
2022-08-07T06:18:05.975Z,5.58
2022-08-07T06:20:50.546Z,5.67
2022-08-07T06:23:46.068Z,5.27
2022-08-07T06:26:05.156Z,5.70
2022-08-07T06:28:33.540Z,5.43
2022-08-07T06:30:59.933Z,5.47
2022-08-07T06:33:26.442Z,5.37
2022-08-07T06:36:12.020Z,5.63
2022-08-07T06:38:39.252Z,5.69
2022-08-07T06:41:58.759Z,5.28
2022-08-07T06:44:12.022Z,5.51
2022-08-07T06:46:39.985Z,5.24
2022-08-07T06:49:06.448Z,5.19
2022-08-07T06:51:33.838Z,5.35
2022-08-07T06:55:30.084Z,5.49
2022-08-07T06:56:48.896Z,5.28
2022-08-07T07:00:12.532Z,5.34
2022-08-07T07:02:02.743Z,5.39
2022-08-07T07:04:32.838Z,5.40
2022-08-07T07:07:01.714Z,5.37
2022-08-07T07:09:31.322Z,5.61
2022-08-07T07:12:08.256Z,5.42
2022-08-07T07:14:43.133Z,5.88
2022-08-07T07:17:16.135Z,6.05
2022-08-07T07:19:56.340Z,5.40
2022-08-07T07:22:37.000Z,5.55
2022-08-07T07:26:30.758Z,5.84
2022-08-07T07:28:02.540Z,5.57
2022-08-07T07:30:38.561Z,5.40
2022-08-07T07:33:06.615Z,5.68
2022-08-07T07:35:51.897Z,5.74
2022-08-07T07:38:20.713Z,5.50
2022-08-07T07:40:47.896Z,5.67
2022-08-07T07:43:18.364Z,5.54
2022-08-07T07:46:37.565Z,5.63
2022-08-07T07:48:35.735Z,5.88
2022-08-07T07:51:02.752Z,5.60
2022-08-07T07:53:34.911Z,5.90
2022-08-07T07:56:01.478Z,5.62
2022-08-07T07:58:27.956Z,5.79
2022-08-07T08:00:54.429Z,5.53
2022-08-07T08:04:10.610Z,5.39
2022-08-07T08:06:08.136Z,5.80
2022-08-07T08:08:41.917Z,5.83
2022-08-07T08:11:13.501Z,5.79
2022-08-07T08:13:54.271Z,5.70
2022-08-07T08:16:25.284Z,5.66
2022-08-07T08:18:51.829Z,5.95
2022-08-07T08:21:18.250Z,5.76
2022-08-07T08:23:45.642Z,5.82
2022-08-07T08:26:12.626Z,5.92
2022-08-07T08:28:44.762Z,5.96
2022-08-07T08:31:15.759Z,5.51
2022-08-07T08:33:49.071Z,5.75
2022-08-07T08:36:16.491Z,5.63
2022-08-07T08:38:42.912Z,5.53
2022-08-07T08:41:11.977Z,5.49
2022-08-07T08:43:42.137Z,5.66
2022-08-07T08:46:09.708Z,5.84
2022-08-07T08:48:38.560Z,5.47
2022-08-07T08:51:14.614Z,5.77
2022-08-07T08:53:51.478Z,5.76
2022-08-07T08:56:17.900Z,5.97
2022-08-07T08:58:50.692Z,5.52
2022-08-07T09:01:21.138Z,5.56
2022-08-07T09:03:52.979Z,5.63
2022-08-07T09:06:21.631Z,5.75
2022-08-07T09:08:48.036Z,5.61
2022-08-07T09:11:24.430Z,5.57
2022-08-07T09:14:01.768Z,5.51
2022-08-07T09:16:30.138Z,5.45
2022-08-07T09:18:58.558Z,5.67
2022-08-07T09:21:57.960Z,5.64
2022-08-07T09:24:32.197Z,5.73
2022-08-07T09:26:58.679Z,5.81
2022-08-07T09:30:06.000Z,5.62
2022-08-07T09:32:18.988Z,5.68
2022-08-07T09:34:53.655Z,5.79
2022-08-07T09:37:20.529Z,5.80
2022-08-07T09:40:00.448Z,5.69
2022-08-07T09:42:30.381Z,5.53
2022-08-07T09:47:51.294Z,5.96
2022-08-07T09:48:00.423Z,5.76
2022-08-07T09:50:30.708Z,5.58
2022-08-07T09:53:00.132Z,5.62
2022-08-07T09:55:36.995Z,5.42
2022-08-07T09:58:16.677Z,5.59
2022-08-07T10:00:44.901Z,5.44
2022-08-07T10:04:05.498Z,5.85
2022-08-07T10:06:04.360Z,6.55
2022-08-07T10:08:34.486Z,6.35
2022-08-07T10:11:17.064Z,5.77
2022-08-07T10:14:00.686Z,5.91
2022-08-07T10:16:29.012Z,5.96
2022-08-07T10:18:56.927Z,6.02
2022-08-07T10:22:14.634Z,5.73
2022-08-07T10:24:18.653Z,5.65
2022-08-07T10:26:53.366Z,6.11
2022-08-07T10:29:20.073Z,5.97
2022-08-07T10:31:49.591Z,5.77
2022-08-07T10:34:18.065Z,5.78
2022-08-07T10:36:45.543Z,5.85
2022-08-07T10:39:14.080Z,5.53
2022-08-07T10:41:46.372Z,5.68
2022-08-07T10:44:14.597Z,5.64
2022-08-07T10:46:41.022Z,5.98
2022-08-07T10:49:07.797Z,5.84
2022-08-07T10:51:57.751Z,5.99
2022-08-07T10:54:21.696Z,5.70
2022-08-07T10:56:48.180Z,6.40
2022-08-07T10:59:15.637Z,6.05
2022-08-07T11:01:51.908Z,5.99
2022-08-07T11:04:34.908Z,6.14
2022-08-07T11:07:04.262Z,5.94
2022-08-07T11:10:08.797Z,5.66
2022-08-07T11:12:32.051Z,5.66
2022-08-07T11:14:59.802Z,5.74
2022-08-07T11:17:43.450Z,5.87
2022-08-07T11:20:12.288Z,5.42
2022-08-07T11:22:46.016Z,5.62
2022-08-07T11:25:12.748Z,5.63
2022-08-07T11:28:03.172Z,5.73
2022-08-07T11:30:41.880Z,5.74
2022-08-07T11:33:14.180Z,6.55
2022-08-07T11:35:59.650Z,5.81
2022-08-07T11:38:28.174Z,5.55
2022-08-07T11:40:54.846Z,5.38
2022-08-07T11:43:29.822Z,5.65
2022-08-07T11:46:08.930Z,5.47
2022-08-07T11:48:35.860Z,5.41
2022-08-07T11:51:04.032Z,5.38
2022-08-07T11:53:36.121Z,5.60
2022-08-07T11:56:15.503Z,5.49
2022-08-07T11:58:49.739Z,5.79
2022-08-07T12:01:20.192Z,5.86
2022-08-07T12:03:48.676Z,5.49
2022-08-07T12:06:37.101Z,5.54
2022-08-07T12:09:01.558Z,5.60
2022-08-07T12:11:32.482Z,5.62
2022-08-07T12:13:59.100Z,5.36
2022-08-07T12:16:30.104Z,5.62
2022-08-07T12:18:57.308Z,5.54
2022-08-07T12:21:55.987Z,5.37
2022-08-07T12:24:37.103Z,5.55
2022-08-07T12:26:56.498Z,5.52
2022-08-07T12:29:38.003Z,5.42
2022-08-07T12:32:12.093Z,5.59
2022-08-07T12:34:39.144Z,5.40
2022-08-07T12:37:08.814Z,5.47
2022-08-07T12:39:50.858Z,5.47
2022-08-07T12:42:17.845Z,5.50
2022-08-07T12:44:53.835Z,5.26
2022-08-07T12:47:27.123Z,5.49
2022-08-07T12:50:00.435Z,5.12
2022-08-07T12:52:34.083Z,5.17
2022-08-07T12:55:05.264Z,5.14
2022-08-07T12:57:39.206Z,5.08
2022-08-07T13:00:26.088Z,5.09
2022-08-07T13:02:59.509Z,5.08
2022-08-07T13:06:03.743Z,4.91
2022-08-07T13:08:19.186Z,4.78
2022-08-07T13:10:52.285Z,5.02
2022-08-07T13:13:48.046Z,4.88
2022-08-07T13:16:05.389Z,5.13
2022-08-07T13:18:34.182Z,5.11
2022-08-07T13:21:00.855Z,4.97
2022-08-07T13:24:01.086Z,5.02
2022-08-07T13:26:16.045Z,5.13
2022-08-07T13:28:44.835Z,4.64
2022-08-07T13:31:13.208Z,4.62
2022-08-07T13:34:31.693Z,4.76
2022-08-07T13:36:26.504Z,4.86
2022-08-07T13:38:54.454Z,4.80
2022-08-07T13:41:21.157Z,4.80
2022-08-07T13:43:52.550Z,4.88
2022-08-07T13:46:28.255Z,4.62
2022-08-07T13:48:59.412Z,4.84
2022-08-07T13:51:28.099Z,4.70
2022-08-07T13:54:16.459Z,4.80
2022-08-07T13:56:55.521Z,4.80
2022-08-07T13:59:22.565Z,4.70
2022-08-07T14:01:51.016Z,4.89
2022-08-07T14:04:36.766Z,4.75
2022-08-07T14:07:04.530Z,4.61
2022-08-07T14:10:01.279Z,4.79
2022-08-07T14:12:20.801Z,4.79
2022-08-07T14:14:53.900Z,4.61
2022-08-07T14:18:12.887Z,4.74
2022-08-07T14:20:42.976Z,4.57
2022-08-07T14:22:53.112Z,4.71
2022-08-07T14:25:22.412Z,4.57
2022-08-07T14:28:10.273Z,4.74
2022-08-07T14:30:35.796Z,4.56
2022-08-07T14:33:07.158Z,4.80
2022-08-07T14:35:43.335Z,4.62
2022-08-07T14:38:26.696Z,4.76
2022-08-07T14:40:57.928Z,4.76
2022-08-07T14:46:10.884Z,4.40
2022-08-07T14:48:43.870Z,4.32
2022-08-07T14:51:15.765Z,4.62
2022-08-07T14:56:29.945Z,4.62
2022-08-07T14:58:56.981Z,4.75
2022-08-07T15:01:23.390Z,4.47
2022-08-07T15:03:52.268Z,4.56
2022-08-07T15:06:19.608Z,4.78
2022-08-07T15:08:50.190Z,4.35
2022-08-07T15:11:53.742Z,4.56
2022-08-07T15:14:10.090Z,4.44
2022-08-07T15:16:37.220Z,4.25
2022-08-07T15:19:03.635Z,4.46
2022-08-07T15:21:45.071Z,4.63
2022-08-07T15:25:13.546Z,4.37
2022-08-07T15:27:06.378Z,4.20
2022-08-07T15:30:09.921Z,4.27
2022-08-07T15:32:38.953Z,4.56
2022-08-07T15:35:05.585Z,4.41
2022-08-07T15:38:04.830Z,4.45
2022-08-07T15:40:34.456Z,4.18
2022-08-07T15:43:01.660Z,4.46
2022-08-07T15:48:14.843Z,4.47
2022-08-07T15:53:42.184Z,4.30
2022-08-07T15:56:19.092Z,4.41
2022-08-07T15:58:45.487Z,4.39
2022-08-07T16:01:20.334Z,4.25
2022-08-07T16:03:57.383Z,4.25
2022-08-07T16:06:24.927Z,4.29
2022-08-07T16:08:52.945Z,4.42
2022-08-07T16:11:27.095Z,4.35
2022-08-07T16:13:59.439Z,4.34
2022-08-07T16:16:43.197Z,4.11
2022-08-07T16:19:13.181Z,4.30
2022-08-07T16:22:01.384Z,4.22
2022-08-07T16:24:34.286Z,4.28
2022-08-07T16:27:01.876Z,4.81
2022-08-07T16:30:10.773Z,13.58
2022-08-07T16:32:34.432Z,24.30
2022-08-07T16:35:01.099Z,19.10
2022-08-07T16:38:06.804Z,28.28
2022-08-07T16:40:28.200Z,19.24
2022-08-07T16:42:57.110Z,36.21
2022-08-07T16:46:47.444Z,23.07
2022-08-07T16:48:13.677Z,32.71
2022-08-07T16:50:52.686Z,39.38
2022-08-07T16:54:01.412Z,31.12
2022-08-07T16:56:05.853Z,31.72
2022-08-07T16:58:54.380Z,28.80
2022-08-07T17:01:18.690Z,31.53
2022-08-07T17:03:58.029Z,29.54
2022-08-07T17:06:31.124Z,31.15
2022-08-07T17:09:09.140Z,28.44
2022-08-07T17:12:01.450Z,25.65
2022-08-07T17:14:23.841Z,22.37
2022-08-07T17:16:55.648Z,20.90
2022-08-07T17:20:01.095Z,18.90
2022-08-07T17:22:10.625Z,16.70
2022-08-07T17:24:37.117Z,14.86
2022-08-07T17:27:03.551Z,13.86
2022-08-07T17:30:14.355Z,12.82
2022-08-07T17:32:30.464Z,11.61
2022-08-07T17:35:51.603Z,11.21
2022-08-07T17:38:06.571Z,10.79
2022-08-07T17:40:31.170Z,10.04
2022-08-07T17:42:59.897Z,10.09
2022-08-07T17:45:26.710Z,9.61
2022-08-07T17:47:54.365Z,9.16
2022-08-07T17:50:20.903Z,8.78
2022-08-07T17:52:47.304Z,8.25
2022-08-07T17:55:14.418Z,7.80
2022-08-07T17:58:01.862Z,7.41
2022-08-07T18:00:34.553Z,6.90
2022-08-07T18:03:18.227Z,7.20
2022-08-07T18:06:02.910Z,7.87
2022-08-07T18:08:31.492Z,7.36
2022-08-07T18:12:07.416Z,6.95
2022-08-07T18:13:44.296Z,6.43
2022-08-07T18:16:12.041Z,6.42
2022-08-07T18:21:01.359Z,5.49
2022-08-07T18:21:53.411Z,5.72
2022-08-07T18:24:11.971Z,5.77
2022-08-07T18:27:01.107Z,5.49
2022-08-07T18:30:07.142Z,5.26
2022-08-07T18:32:14.114Z,5.29
2022-08-07T18:35:00.808Z,5.38
2022-08-07T18:38:59.651Z,5.73
2022-08-07T18:40:17.977Z,5.44
2022-08-07T18:43:00.915Z,5.55
2022-08-07T18:45:44.399Z,5.12
2022-08-07T18:50:19.460Z,5.01
2022-08-07T18:51:00.105Z,4.80
2022-08-07T18:53:39.231Z,4.87
2022-08-07T18:56:06.192Z,4.89
2022-08-07T18:58:32.734Z,4.65
2022-08-07T19:01:00.935Z,4.64
2022-08-07T19:03:37.962Z,4.81
2022-08-07T19:06:05.259Z,4.78
2022-08-07T19:08:31.924Z,4.66
2022-08-07T19:10:59.129Z,4.54
2022-08-07T19:13:25.550Z,4.29
2022-08-07T19:16:05.929Z,4.27
2022-08-07T19:18:44.924Z,4.41
2022-08-07T19:21:42.770Z,4.26
2022-08-07T19:24:00.307Z,4.01
2022-08-07T19:26:29.291Z,3.87
2022-08-07T19:30:56.495Z,4.12
2022-08-07T19:32:10.346Z,3.98
2022-08-07T19:34:34.530Z,4.05
2022-08-07T19:37:09.680Z,4.15
2022-08-07T19:39:56.910Z,4.02
2022-08-07T19:42:25.244Z,4.16
2022-08-07T19:44:51.740Z,3.76
2022-08-07T19:47:18.139Z,4.06
2022-08-07T19:49:58.020Z,4.13
2022-08-07T19:52:29.300Z,4.32
2022-08-07T19:54:57.196Z,4.22
2022-08-07T19:57:51.257Z,4.30
2022-08-07T20:00:10.585Z,4.16
2022-08-07T20:02:39.241Z,4.14
2022-08-07T20:05:08.041Z,4.12
2022-08-07T20:07:45.880Z,4.00
2022-08-07T20:10:36.107Z,3.99
2022-08-07T20:12:59.774Z,4.12
2022-08-07T20:15:27.801Z,3.80
2022-08-07T20:18:03.564Z,3.84
2022-08-07T20:20:30.754Z,3.98
2022-08-07T20:22:57.182Z,3.87
2022-08-07T20:25:23.595Z,3.68
2022-08-07T20:27:57.932Z,4.02
2022-08-07T20:30:25.147Z,4.45
2022-08-07T20:32:51.873Z,4.52
2022-08-07T20:35:21.926Z,4.70
2022-08-07T20:37:59.001Z,4.91
2022-08-07T20:40:33.333Z,5.00
2022-08-07T20:43:01.022Z,4.94
2022-08-07T20:45:32.998Z,4.98
2022-08-07T20:48:28.834Z,4.82
2022-08-07T20:50:56.829Z,4.74
2022-08-07T20:53:25.824Z,4.79
2022-08-07T20:56:10.559Z,4.85
2022-08-07T20:58:36.959Z,4.70
2022-08-07T21:01:04.877Z,4.77
2022-08-07T21:03:31.501Z,4.94
2022-08-07T21:06:01.267Z,4.87
2022-08-07T21:08:37.323Z,4.65
2022-08-07T21:11:05.492Z,4.61
2022-08-07T21:13:57.378Z,4.65
2022-08-07T21:16:23.431Z,4.73
2022-08-07T21:18:53.255Z,4.43
2022-08-07T21:21:19.805Z,4.64
2022-08-07T21:23:53.598Z,4.40
2022-08-07T21:26:20.003Z,4.48
2022-08-07T21:28:50.917Z,4.44
2022-08-07T21:31:17.645Z,4.33
2022-08-07T21:33:58.008Z,4.35
2022-08-07T21:36:31.274Z,4.36
2022-08-07T21:38:59.089Z,4.42
2022-08-07T21:41:26.417Z,4.61
2022-08-07T21:43:56.090Z,4.47
2022-08-07T21:46:25.165Z,4.17
2022-08-07T21:48:58.393Z,4.30
2022-08-07T21:51:25.787Z,4.20
2022-08-07T21:53:53.567Z,4.30
2022-08-07T21:56:35.839Z,4.29
2022-08-07T21:59:03.203Z,4.35
2022-08-07T22:02:07.043Z,4.16
2022-08-07T22:04:20.220Z,4.44
2022-08-07T22:06:49.729Z,4.31
2022-08-07T22:09:16.375Z,4.12
2022-08-07T22:12:05.144Z,4.36
2022-08-07T22:14:34.936Z,4.09
2022-08-07T22:17:04.098Z,4.09
2022-08-07T22:19:30.614Z,4.17
2022-08-07T22:22:02.570Z,4.07
2022-08-07T22:24:37.602Z,3.81
2022-08-07T22:27:04.009Z,4.08
2022-08-07T22:29:38.025Z,4.19
2022-08-07T22:32:20.393Z,3.91
2022-08-07T22:34:49.709Z,3.96
2022-08-07T22:37:19.975Z,3.92
2022-08-07T22:39:52.498Z,3.84
2022-08-07T22:42:26.077Z,4.07
2022-08-07T22:45:10.916Z,3.96
2022-08-07T22:47:52.600Z,3.85
2022-08-07T22:50:20.409Z,3.99
2022-08-07T22:52:47.594Z,4.10
2022-08-07T22:55:17.561Z,4.09
2022-08-07T22:57:49.196Z,3.85
2022-08-07T23:00:16.340Z,3.99
2022-08-07T23:02:43.119Z,3.96
2022-08-07T23:06:06.805Z,3.93
2022-08-07T23:07:57.269Z,3.98
2022-08-07T23:10:36.451Z,4.10
2022-08-07T23:13:04.978Z,3.92
2022-08-07T23:16:07.386Z,3.81
2022-08-07T23:18:17.985Z,3.88
2022-08-07T23:20:53.162Z,3.96
2022-08-07T23:24:06.251Z,3.79
2022-08-07T23:26:06.514Z,4.02
2022-08-07T23:28:32.932Z,3.75
2022-08-07T23:31:07.017Z,3.74
2022-08-07T23:34:34.332Z,3.91
2022-08-07T23:36:28.960Z,4.08
2022-08-07T23:38:56.119Z,3.92
2022-08-07T23:41:22.666Z,3.92
2022-08-07T23:43:59.555Z,3.98
2022-08-07T23:46:27.320Z,3.81
2022-08-07T23:48:53.843Z,4.09
2022-08-07T23:52:59.746Z,3.83
2022-08-07T23:54:19.535Z,3.99
2022-08-07T23:56:54.976Z,3.99
